Time;durP1;ratioP1;P1;durP2;ratioP2;P2;SDS_P1;SDS_P2;PMS_P1;PMS_P2;Temp;Humidity;BMP_temperature;BMP_pressure;BME280_temperature;BME280_humidity;BME280_pressure;Samples;Min_cycle;Max_cycle;Signal;HPM_P1;HPM_P2
2022/06/26 00:01:50;;;;;;;818.40;741.67;;;16.80;99.90;;;;;;4930684;29;21152;-83
2022/06/26 00:04:17;;;;;;;822.40;746.23;;;16.80;99.90;;;;;;4925689;29;20480;-83
2022/06/26 00:06:43;;;;;;;828.63;755.43;;;16.80;99.90;;;;;;4944452;29;20458;-83
2022/06/26 00:09:11;;;;;;;812.00;734.33;;;16.70;99.90;;;;;;4950070;29;20467;-83
2022/06/26 00:11:38;;;;;;;815.70;737.17;;;16.80;99.90;;;;;;4938866;29;20460;-83
2022/06/26 00:14:05;;;;;;;809.70;726.53;;;16.70;99.90;;;;;;4932475;29;20486;-83
2022/06/26 00:16:32;;;;;;;802.57;719.90;;;16.80;99.90;;;;;;4942129;29;20458;-83
2022/06/26 00:18:58;;;;;;;807.10;722.53;;;16.80;99.90;;;;;;4951005;29;20458;-83
2022/06/26 00:21:25;;;;;;;805.27;722.63;;;16.80;99.90;;;;;;4936759;29;20454;-83
2022/06/26 00:23:52;;;;;;;802.00;719.50;;;16.80;99.90;;;;;;4933220;29;20487;-83
2022/06/26 00:26:20;;;;;;;802.43;718.30;;;16.80;99.90;;;;;;4945432;29;20458;-83
2022/06/26 00:28:47;;;;;;;805.77;720.60;;;16.80;99.90;;;;;;4950841;29;20459;-83
2022/06/26 00:31:14;;;;;;;804.00;718.30;;;16.80;99.90;;;;;;4940507;29;20752;-83
2022/06/26 00:33:40;;;;;;;805.23;720.77;;;16.80;99.90;;;;;;4931416;29;21050;-83
2022/06/26 00:36:07;;;;;;;810.53;725.47;;;16.80;99.90;;;;;;4945930;29;20490;-83
2022/06/26 00:38:34;;;;;;;807.50;723.10;;;16.80;99.90;;;;;;4948339;29;21152;-83
2022/06/26 00:41:00;;;;;;;798.10;713.33;;;16.70;99.90;;;;;;4935011;29;20810;-83
2022/06/26 00:43:29;;;;;;;797.30;712.63;;;16.70;99.90;;;;;;4930829;29;20488;-83
2022/06/26 00:45:56;;;;;;;793.20;708.30;;;16.60;99.90;;;;;;4943684;29;20469;-83
2022/06/26 00:48:23;;;;;;;794.90;709.43;;;16.60;99.90;;;;;;4949726;29;20459;-83
2022/06/26 00:50:51;;;;;;;813.07;725.10;;;16.50;99.90;;;;;;4939689;29;20455;-83
2022/06/26 00:53:18;;;;;;;797.17;710.50;;;16.50;99.90;;;;;;4931663;29;20460;-83
2022/06/26 00:55:45;;;;;;;801.13;715.03;;;16.50;99.90;;;;;;4938861;29;20474;-83
2022/06/26 00:58:12;;;;;;;803.10;717.00;;;16.40;99.90;;;;;;4944688;29;20462;-83
2022/06/26 01:00:41;;;;;;;803.00;716.27;;;16.40;99.90;;;;;;4937368;29;20462;-83
2022/06/26 01:03:08;;;;;;;810.30;721.57;;;16.30;99.90;;;;;;4926858;29;20551;-83
2022/06/26 01:05:35;;;;;;;804.43;717.23;;;16.20;99.90;;;;;;4934038;29;20450;-83
2022/06/26 01:08:03;;;;;;;796.87;711.03;;;16.30;99.90;;;;;;4947947;29;20948;-83
2022/06/26 01:10:30;;;;;;;790.20;703.80;;;16.20;99.90;;;;;;4946284;29;20483;-83
2022/06/26 01:12:57;;;;;;;789.13;702.87;;;16.30;99.90;;;;;;4946034;29;20981;-83
2022/06/26 01:15:24;;;;;;;790.17;704.27;;;16.20;99.90;;;;;;4937197;29;20486;-83
2022/06/26 01:17:52;;;;;;;795.80;711.60;;;16.20;99.90;;;;;;4931914;29;20457;-83
2022/06/26 01:20:19;;;;;;;799.87;715.53;;;16.30;99.90;;;;;;4941736;29;20458;-83
2022/06/26 01:22:58;;;;;;;791.80;707.50;;;16.20;99.90;;;;;;4951325;29;20457;-83
2022/06/26 01:25:24;;;;;;;801.83;717.37;;;16.20;99.90;;;;;;4939957;29;20475;-83
2022/06/26 01:27:51;;;;;;;804.00;719.60;;;16.10;99.90;;;;;;4931940;29;20461;-83
2022/06/26 01:30:18;;;;;;;807.83;721.50;;;16.10;99.90;;;;;;4929793;29;20455;-83
2022/06/26 01:32:44;;;;;;;813.87;727.97;;;16.00;99.90;;;;;;4930613;29;20455;-83
2022/06/26 01:35:11;;;;;;;818.70;732.20;;;15.90;99.90;;;;;;4930541;29;20481;-83
2022/06/26 01:37:38;;;;;;;805.20;721.03;;;16.00;99.90;;;;;;4930524;29;20462;-83
2022/06/26 01:40:08;;;;;;;797.00;710.80;;;15.90;99.90;;;;;;4932201;29;20451;-83
2022/06/26 01:42:34;;;;;;;800.10;712.60;;;15.90;99.90;;;;;;4938819;29;20461;-83
2022/06/26 01:45:01;;;;;;;795.53;709.07;;;15.80;99.90;;;;;;4931025;29;20484;-83
2022/06/26 01:47:28;;;;;;;799.27;711.30;;;15.80;99.90;;;;;;4931376;29;20467;-83
2022/06/26 01:49:55;;;;;;;794.23;708.00;;;15.90;99.90;;;;;;4933923;29;20437;-83
2022/06/26 01:52:21;;;;;;;794.53;707.20;;;16.00;99.90;;;;;;4950286;29;20450;-83
2022/06/26 01:54:48;;;;;;;798.97;712.17;;;15.90;99.90;;;;;;4947727;29;20490;-83
2022/06/26 01:57:16;;;;;;;806.27;719.77;;;15.80;99.90;;;;;;4947758;29;20453;-83
2022/06/26 01:59:44;;;;;;;806.43;719.97;;;15.70;99.90;;;;;;4939433;29;20837;-83
2022/06/26 02:02:10;;;;;;;822.30;733.70;;;15.60;99.90;;;;;;4930400;29;20526;-83
2022/06/26 02:04:37;;;;;;;830.27;741.53;;;15.50;99.90;;;;;;4931498;29;20484;-83
2022/06/26 02:07:04;;;;;;;834.33;746.60;;;15.40;99.90;;;;;;4945440;29;20450;-83
2022/06/26 02:15:07;;;;;;;807.70;719.77;;;15.60;99.90;;;;;;4934311;29;20492;-83
2022/06/26 02:17:34;;;;;;;806.73;717.97;;;15.60;99.90;;;;;;4948023;29;20829;-83
2022/06/26 02:20:01;;;;;;;805.57;717.17;;;15.70;99.90;;;;;;4941997;29;20984;-83
2022/06/26 02:22:28;;;;;;;811.53;723.07;;;15.70;99.90;;;;;;4930127;29;20461;-83
2022/06/26 02:24:54;;;;;;;796.10;708.23;;;15.70;99.90;;;;;;4922581;29;20478;-83
2022/06/26 02:27:22;;;;;;;801.07;712.67;;;15.60;99.90;;;;;;4929227;29;20829;-83
2022/06/26 02:29:49;;;;;;;794.87;707.67;;;15.50;99.90;;;;;;4925772;29;20461;-83
2022/06/26 02:32:16;;;;;;;801.90;713.23;;;15.50;99.90;;;;;;4927454;29;20463;-83
2022/06/26 02:34:43;;;;;;;801.47;712.80;;;15.50;99.90;;;;;;4944526;29;20481;-84
2022/06/26 02:37:09;;;;;;;807.63;718.70;;;15.50;99.90;;;;;;4943504;29;20465;-83
2022/06/26 02:39:36;;;;;;;812.63;723.13;;;15.40;99.90;;;;;;4924386;29;20466;-83
2022/06/26 02:42:03;;;;;;;810.50;719.83;;;15.50;99.90;;;;;;4926641;29;20461;-83
2022/06/26 02:44:31;;;;;;;813.67;724.37;;;15.50;99.90;;;;;;4946297;29;20492;-83
2022/06/26 02:46:58;;;;;;;815.73;727.00;;;15.60;99.90;;;;;;4944886;29;20513;-83
2022/06/26 02:49:25;;;;;;;809.17;720.50;;;15.50;99.90;;;;;;4926513;29;20470;-83
2022/06/26 02:51:52;;;;;;;812.20;722.93;;;15.60;99.90;;;;;;4926579;29;20461;-83
2022/06/26 02:54:18;;;;;;;818.60;728.33;;;15.60;99.90;;;;;;4946748;29;20500;-83
2022/06/26 02:56:45;;;;;;;818.67;729.47;;;15.60;99.90;;;;;;4948796;29;20484;-83
2022/06/26 02:59:12;;;;;;;815.00;726.00;;;15.70;99.90;;;;;;4928936;29;20469;-83
2022/06/26 03:01:40;;;;;;;818.83;728.70;;;15.70;99.90;;;;;;4928894;29;20465;-83
2022/06/26 03:04:07;;;;;;;814.10;725.00;;;15.80;99.90;;;;;;4945861;29;20480;-83
2022/06/26 03:06:33;;;;;;;807.87;720.40;;;15.80;99.90;;;;;;4947869;29;20530;-83
2022/06/26 03:09:00;;;;;;;817.57;729.77;;;15.90;99.90;;;;;;4931878;29;20481;-83
2022/06/26 03:11:27;;;;;;;813.50;725.80;;;16.00;99.90;;;;;;4929089;29;20471;-84
2022/06/26 03:13:53;;;;;;;806.93;719.10;;;16.10;99.90;;;;;;4944851;29;20488;-84
2022/06/26 03:16:20;;;;;;;810.77;723.33;;;16.10;99.90;;;;;;4945504;29;20481;-84
2022/06/26 03:18:48;;;;;;;810.77;722.63;;;16.10;99.90;;;;;;4925270;29;20459;-84
2022/06/26 03:21:15;;;;;;;828.20;738.93;;;16.20;99.90;;;;;;4926038;29;20488;-84
2022/06/26 03:26:26;;;;;;;830.67;740.70;;;16.40;99.90;;;;;;4947679;29;20438;-83
2022/06/26 03:28:53;;;;;;;825.73;735.87;;;16.40;99.90;;;;;;4941627;29;20458;-83
2022/06/26 03:31:20;;;;;;;818.70;729.43;;;16.40;99.90;;;;;;4946095;29;20955;-84
2022/06/26 03:33:48;;;;;;;819.00;729.57;;;16.60;99.90;;;;;;4926723;29;20480;-83
2022/06/26 03:36:15;;;;;;;812.77;724.87;;;16.50;99.90;;;;;;4928362;29;20996;-83
2022/06/26 03:38:42;;;;;;;811.73;724.93;;;16.50;99.90;;;;;;4944469;29;20455;-84
2022/06/26 03:41:08;;;;;;;810.80;724.63;;;16.40;99.90;;;;;;4932175;29;20832;-83
2022/06/26 03:43:35;;;;;;;812.00;726.50;;;16.40;99.90;;;;;;4946454;29;20486;-83
2022/06/26 03:46:02;;;;;;;811.43;725.43;;;16.20;99.90;;;;;;4949465;29;20530;-83
2022/06/26 03:48:29;;;;;;;807.87;722.57;;;16.20;99.90;;;;;;4929191;29;20848;-83
2022/06/26 03:50:57;;;;;;;803.17;718.30;;;16.10;99.90;;;;;;4933338;29;20455;-83
2022/06/26 03:53:25;;;;;;;805.23;720.47;;;16.00;99.90;;;;;;4936357;29;20481;-82
2022/06/26 03:55:52;;;;;;;811.83;727.80;;;16.10;99.90;;;;;;4944588;29;20481;-82
2022/06/26 03:58:18;;;;;;;812.07;728.37;;;16.10;99.90;;;;;;4948774;29;20462;-81
2022/06/26 04:00:45;;;;;;;808.73;726.10;;;16.10;99.90;;;;;;4935489;29;20473;-83
2022/06/26 04:03:12;;;;;;;804.20;723.43;;;16.10;99.90;;;;;;4938320;29;20447;-83
2022/06/26 04:05:39;;;;;;;806.10;725.90;;;16.30;99.90;;;;;;4947646;29;20888;-83
2022/06/26 04:08:08;;;;;;;810.93;733.00;;;16.30;99.90;;;;;;4941792;29;20456;-82
2022/06/26 04:10:35;;;;;;;803.67;727.40;;;16.20;99.90;;;;;;4943984;29;20455;-83
2022/06/26 04:13:03;;;;;;;798.17;723.00;;;16.30;99.90;;;;;;4943546;29;20467;-83
2022/06/26 04:15:30;;;;;;;801.47;727.70;;;16.20;99.90;;;;;;4942345;29;20487;-82
2022/06/26 04:17:57;;;;;;;797.37;724.23;;;16.20;99.90;;;;;;4947853;29;20459;-83
2022/06/26 04:20:24;;;;;;;792.87;721.43;;;16.20;99.90;;;;;;4927870;29;20467;-85
2022/06/26 04:22:57;;;;;;;805.90;733.67;;;16.10;99.90;;;;;;4930095;29;20457;-83
2022/06/26 04:25:27;;;;;;;811.20;738.40;;;16.10;99.90;;;;;;4928103;29;20482;-84
2022/06/26 04:27:54;;;;;;;808.97;735.03;;;16.10;99.90;;;;;;4935343;29;20462;-82
2022/06/26 04:30:21;;;;;;;808.80;735.87;;;16.10;99.90;;;;;;4932242;29;20462;-84
2022/06/26 04:32:48;;;;;;;807.20;734.03;;;16.10;99.90;;;;;;4928045;29;20458;-83
2022/06/26 04:35:15;;;;;;;807.77;734.73;;;16.10;99.90;;;;;;4929421;29;20487;-82
2022/06/26 04:37:43;;;;;;;812.27;739.80;;;16.20;99.90;;;;;;4923431;29;20515;-82
2022/06/26 04:40:12;;;;;;;807.83;736.50;;;16.10;99.90;;;;;;4932135;29;20468;-82
2022/06/26 04:42:41;;;;;;;800.03;730.10;;;16.10;99.90;;;;;;4922183;29;20459;-82
2022/06/26 04:45:09;;;;;;;808.03;737.87;;;16.10;99.90;;;;;;4937185;29;20486;-83
2022/06/26 04:47:36;;;;;;;805.53;735.17;;;16.10;99.90;;;;;;4927326;29;20463;-82
2022/06/26 04:50:04;;;;;;;802.93;732.23;;;16.00;99.90;;;;;;4917666;29;20490;-83
2022/06/26 04:52:31;;;;;;;790.40;725.00;;;16.00;99.90;;;;;;4931914;29;20449;-81
2022/06/26 04:54:57;;;;;;;765.30;702.70;;;16.00;99.90;;;;;;4941197;29;20481;-80
2022/06/26 04:57:25;;;;;;;762.17;699.83;;;16.10;99.90;;;;;;4925230;29;20493;-83
2022/06/26 04:59:53;;;;;;;734.30;676.90;;;16.20;99.90;;;;;;4929447;29;20839;-82
2022/06/26 05:02:20;;;;;;;726.37;671.80;;;16.20;99.90;;;;;;4925415;29;20529;-82
2022/06/26 05:04:47;;;;;;;715.13;664.23;;;16.20;99.90;;;;;;4949913;29;20488;-83
2022/06/26 05:07:14;;;;;;;704.93;658.20;;;16.30;99.90;;;;;;4949919;29;20462;-79
2022/06/26 05:09:41;;;;;;;688.63;646.47;;;16.20;99.90;;;;;;4940221;29;20487;-82
2022/06/26 05:12:08;;;;;;;687.60;646.23;;;16.20;99.90;;;;;;4940799;29;20447;-84
2022/06/26 05:14:35;;;;;;;658.03;621.60;;;16.30;99.90;;;;;;4931125;29;20486;-83
2022/06/26 05:17:03;;;;;;;612.53;583.53;;;16.30;99.90;;;;;;4949110;29;20487;-83
2022/06/26 05:19:30;;;;;;;570.40;544.13;;;16.50;99.90;;;;;;4936372;29;20456;-82
2022/06/26 05:21:57;;;;;;;419.67;404.07;;;16.80;99.90;;;;;;4945095;29;20456;-82
2022/06/26 05:24:23;;;;;;;140.63;135.80;;;17.30;99.90;;;;;;4936888;29;20481;-83
2022/06/26 05:26:50;;;;;;;26.60;24.80;;;17.80;99.90;;;;;;4933071;29;20452;-83
2022/06/26 05:29:17;;;;;;;15.53;14.60;;;17.90;99.90;;;;;;4948813;29;20451;-82
2022/06/26 05:31:44;;;;;;;15.17;14.33;;;17.90;99.90;;;;;;4941695;29;20518;-82
2022/06/26 05:34:12;;;;;;;12.40;11.60;;;17.70;99.90;;;;;;4933117;29;20475;-82
2022/06/26 05:36:39;;;;;;;10.63;9.83;;;17.70;99.90;;;;;;4940237;29;20545;-81
2022/06/26 05:39:05;;;;;;;13.83;12.70;;;17.50;99.90;;;;;;4936327;29;20458;-81
2022/06/26 05:41:32;;;;;;;15.30;14.40;;;17.60;99.90;;;;;;4940407;29;20460;-81
2022/06/26 05:43:59;;;;;;;13.03;12.27;;;17.50;99.90;;;;;;4942399;29;20574;-81
2022/06/26 05:46:26;;;;;;;22.07;20.80;;;17.40;99.90;;;;;;4945540;29;20485;-81
2022/06/26 05:48:53;;;;;;;15.20;14.30;;;17.40;99.90;;;;;;4940827;29;20489;-80
2022/06/26 05:51:21;;;;;;;25.70;24.20;;;17.10;99.90;;;;;;4931846;29;20453;-81
2022/06/26 05:53:48;;;;;;;31.87;30.17;;;17.20;99.90;;;;;;4936679;29;20482;-80
2022/06/26 05:56:15;;;;;;;23.10;21.70;;;17.20;99.90;;;;;;4935130;29;20537;-80
2022/06/26 05:58:42;;;;;;;24.37;22.87;;;17.10;99.90;;;;;;4933687;29;20460;-82
2022/06/26 06:01:08;;;;;;;30.37;28.77;;;17.10;99.90;;;;;;4932210;29;20461;-81
2022/06/26 06:03:35;;;;;;;29.50;27.80;;;17.10;99.90;;;;;;4928621;29;20477;-81
2022/06/26 06:06:02;;;;;;;31.33;29.43;;;17.20;99.90;;;;;;4931554;29;20460;-81
2022/06/26 06:08:30;;;;;;;13.07;11.87;;;17.20;99.90;;;;;;4936601;29;20837;-83
2022/06/26 06:10:57;;;;;;;21.77;20.20;;;17.50;99.90;;;;;;4928968;29;20461;-82
2022/06/26 06:13:23;;;;;;;8.27;7.47;;;17.80;99.90;;;;;;4942447;29;20478;-79
2022/06/26 06:15:50;;;;;;;10.63;9.63;;;18.00;99.90;;;;;;4931571;29;20457;-83
2022/06/26 06:18:17;;;;;;;7.50;5.77;;;18.10;99.90;;;;;;4943833;29;20835;-82
2022/06/26 06:20:45;;;;;;;10.63;6.57;;;18.10;99.90;;;;;;4940863;29;20461;-82
2022/06/26 06:23:12;;;;;;;10.00;6.23;;;18.40;99.90;;;;;;4927886;29;20475;-82
2022/06/26 06:25:40;;;;;;;8.80;4.70;;;19.00;99.90;;;;;;4937956;29;20488;-81
2022/06/26 06:28:08;;;;;;;9.70;4.07;;;19.50;99.90;;;;;;4935823;29;20485;-83
2022/06/26 06:30:34;;;;;;;7.07;3.80;;;19.70;99.90;;;;;;4944482;29;20457;-81
2022/06/26 06:33:01;;;;;;;9.73;3.13;;;20.00;99.90;;;;;;4929882;29;20462;-83
2022/06/26 06:35:28;;;;;;;5.60;3.10;;;20.10;96.80;;;;;;4938446;29;20472;-82
2022/06/26 06:37:55;;;;;;;4.73;3.00;;;20.10;94.90;;;;;;4933607;29;20486;-83
2022/06/26 06:40:21;;;;;;;5.03;2.67;;;19.60;94.90;;;;;;4939274;29;20460;-82
2022/06/26 06:42:49;;;;;;;6.83;3.00;;;19.80;95.60;;;;;;4939539;29;20461;-82
2022/06/26 06:45:16;;;;;;;5.70;2.87;;;20.30;96.60;;;;;;4942842;29;20492;-82
2022/06/26 06:47:45;;;;;;;4.37;1.97;;;21.10;92.10;;;;;;4932711;29;20449;-85
2022/06/26 06:50:12;;;;;;;5.93;2.57;;;21.00;89.80;;;;;;4926267;29;20457;-86
2022/06/26 06:52:40;;;;;;;8.93;2.40;;;20.70;87.30;;;;;;4929736;29;20460;-85
2022/06/26 06:55:08;;;;;;;5.17;2.10;;;20.70;84.30;;;;;;4932408;29;20484;-85
2022/06/26 06:57:34;;;;;;;6.83;2.40;;;20.70;84.60;;;;;;4935151;29;20481;-84
2022/06/26 07:00:04;;;;;;;7.30;2.53;;;20.60;89.40;;;;;;4935417;29;20464;-82
2022/06/26 07:02:31;;;;;;;3.77;1.67;;;20.40;86.50;;;;;;4941014;29;20467;-81
2022/06/26 07:05:02;;;;;;;5.23;1.47;;;20.70;86.70;;;;;;4940715;29;20470;-83
2022/06/26 07:07:29;;;;;;;5.33;1.90;;;20.40;83.50;;;;;;4930284;29;20451;-82
2022/06/26 07:09:58;;;;;;;4.47;1.97;;;20.80;86.50;;;;;;4929225;29;20466;-81
2022/06/26 07:12:25;;;;;;;4.97;2.13;;;21.50;84.80;;;;;;4924421;29;20521;-81
2022/06/26 07:14:54;;;;;;;7.17;2.77;;;21.70;79.50;;;;;;4926361;29;20482;-80
2022/06/26 07:17:23;;;;;;;6.67;1.97;;;21.80;73.30;;;;;;4938346;29;20478;-81
2022/06/26 07:19:49;;;;;;;13.33;1.97;;;22.00;71.90;;;;;;4918999;29;20466;-81
2022/06/26 07:22:16;;;;;;;5.10;2.10;;;22.20;71.20;;;;;;4938619;29;20847;-82
2022/06/26 07:24:43;;;;;;;4.10;1.50;;;22.60;68.10;;;;;;4926384;29;20485;-82
2022/06/26 07:27:12;;;;;;;4.33;1.63;;;22.30;63.90;;;;;;4926764;29;20976;-82
2022/06/26 07:29:38;;;;;;;4.17;1.53;;;22.70;70.50;;;;;;4925486;29;20467;-83
2022/06/26 07:32:08;;;;;;;4.47;1.73;;;23.20;61.20;;;;;;4917505;29;20476;-84
2022/06/26 07:34:36;;;;;;;5.30;2.03;;;23.30;58.80;;;;;;4932277;29;20478;-83
2022/06/26 07:37:05;;;;;;;7.33;1.93;;;22.90;61.30;;;;;;4920128;29;20476;-83
2022/06/26 07:39:32;;;;;;;8.17;1.73;;;22.80;59.20;;;;;;4922486;29;20809;-83
2022/06/26 07:42:08;;;;;;;4.30;1.40;;;22.90;61.60;;;;;;4917956;29;20462;-82
2022/06/26 07:44:41;;;;;;;6.53;1.50;;;22.70;62.80;;;;;;4923719;29;20485;-83
2022/06/26 07:47:34;;;;;;;4.43;1.70;;;22.70;61.40;;;;;;4935722;29;20457;-83
2022/06/26 08:20:29;;;;;;;4.93;1.67;;;23.60;56.50;;;;;;4843690;29;20448;-85
2022/06/26 08:26:14;;;;;;;4.10;1.33;;;23.40;53.50;;;;;;4814213;29;20519;-83
2022/06/26 08:28:44;;;;;;;4.87;1.83;;;24.50;48.60;;;;;;4849301;29;21010;-83
2022/06/26 08:31:11;;;;;;;4.30;1.77;;;24.90;47.00;;;;;;4898268;29;20461;-84
2022/06/26 08:33:46;;;;;;;4.73;1.40;;;24.60;47.20;;;;;;4952278;28;20479;-83
2022/06/26 08:36:25;;;;;;;6.93;1.67;;;23.80;48.00;;;;;;4957922;29;20486;-83
2022/06/26 08:39:04;;;;;;;4.20;1.57;;;23.10;49.60;;;;;;4964237;28;20458;-84
2022/06/26 08:41:33;;;;;;;7.10;1.90;;;22.80;54.70;;;;;;4980490;28;20464;-84
2022/06/26 08:44:04;;;;;;;4.10;1.50;;;22.70;51.90;;;;;;4978288;28;20506;-84
2022/06/26 08:46:38;;;;;;;4.80;1.80;;;22.80;52.50;;;;;;4971529;28;20446;-83
2022/06/26 08:49:21;;;;;;;5.97;1.80;;;23.40;54.00;;;;;;4957115;29;20440;-82
2022/06/26 08:52:08;;;;;;;4.93;1.40;;;24.10;48.20;;;;;;4957710;28;20458;-84
2022/06/26 08:54:40;;;;;;;4.90;1.60;;;24.50;43.30;;;;;;4957871;29;20486;-84
2022/06/26 08:57:08;;;;;;;4.40;1.50;;;24.90;44.40;;;;;;4959820;28;20542;-83
2022/06/26 08:59:37;;;;;;;4.50;1.63;;;24.80;49.60;;;;;;4957343;29;20451;-83
2022/06/26 09:02:07;;;;;;;4.13;1.63;;;24.70;39.70;;;;;;4970751;28;20538;-83
2022/06/26 09:04:40;;;;;;;6.17;1.67;;;24.90;43.40;;;;;;4976037;28;20481;-83
2022/06/26 09:07:15;;;;;;;5.80;2.03;;;25.40;40.30;;;;;;4961731;28;20422;-83
2022/06/26 09:09:45;;;;;;;6.83;1.80;;;25.60;42.30;;;;;;4956288;29;20451;-82
2022/06/26 09:15:20;;;;;;;5.13;1.80;;;25.60;39.40;;;;;;4975709;28;20537;-84
2022/06/26 09:18:38;;;;;;;4.80;1.70;;;26.10;36.70;;;;;;4974243;28;20478;-86
2022/06/26 09:21:07;;;;;;;4.33;1.10;;;26.50;30.40;;;;;;4961599;28;20466;-87
2022/06/26 09:23:36;;;;;;;7.20;1.90;;;26.40;32.20;;;;;;4955747;29;20853;-86
2022/06/26 09:37:10;;;;;;;4.40;1.40;;;26.50;28.30;;;;;;4875218;29;20458;-86
2022/06/26 10:26:55;;;;;;;8.87;1.80;;;27.00;18.20;;;;;;4860016;29;20838;-86
2022/06/26 10:48:37;;;;;;;4.93;1.40;;;26.10;15.10;;;;;;4892929;29;20477;-85
2022/06/26 10:51:04;;;;;;;4.00;1.30;;;26.40;15.60;;;;;;4919961;23;20467;-84
2022/06/26 10:53:32;;;;;;;4.20;1.30;;;25.80;16.30;;;;;;4942229;29;20472;-85
2022/06/26 10:56:01;;;;;;;4.77;1.40;;;26.10;19.20;;;;;;4953177;29;20456;-85
2022/06/26 10:58:30;;;;;;;5.00;1.77;;;25.40;16.20;;;;;;4953433;29;20498;-85
2022/06/26 11:00:59;;;;;;;4.87;1.37;;;25.50;19.90;;;;;;4941282;29;20457;-85
2022/06/26 11:03:27;;;;;;;7.83;1.53;;;25.30;18.00;;;;;;4927820;29;20452;-84
2022/06/26 11:05:55;;;;;;;4.87;1.70;;;25.00;18.60;;;;;;4930262;29;20472;-84
2022/06/26 11:08:24;;;;;;;6.27;1.47;;;24.80;23.20;;;;;;4937322;29;21142;-83
2022/06/26 11:10:50;;;;;;;5.87;1.70;;;24.40;21.80;;;;;;4925270;29;20462;-83
2022/06/26 11:13:17;;;;;;;4.60;1.50;;;24.00;22.60;;;;;;4934763;29;20488;-84
2022/06/26 11:15:44;;;;;;;4.30;1.30;;;23.80;25.50;;;;;;4925498;29;20454;-83
2022/06/26 11:18:12;;;;;;;5.07;1.70;;;23.70;24.40;;;;;;4921568;29;20453;-82
2022/06/26 11:20:49;;;;;;;5.03;1.33;;;23.60;25.70;;;;;;4923738;29;20461;-83
2022/06/26 11:23:19;;;;;;;4.10;1.37;;;23.60;26.60;;;;;;4920869;29;20559;-78
2022/06/26 11:25:46;;;;;;;4.53;1.70;;;23.40;29.70;;;;;;4919440;29;20503;-82
2022/06/26 11:28:13;;;;;;;5.50;1.50;;;23.00;31.60;;;;;;4924350;29;20480;-84
2022/06/26 11:30:42;;;;;;;5.70;1.57;;;22.60;28.90;;;;;;4937332;29;20463;-84
2022/06/26 11:33:09;;;;;;;5.83;1.90;;;22.40;34.30;;;;;;4927341;29;20479;-84
2022/06/26 11:35:38;;;;;;;4.43;1.67;;;22.20;32.70;;;;;;4939608;29;20462;-84
2022/06/26 11:38:16;;;;;;;5.50;1.90;;;22.10;34.50;;;;;;4935391;29;20460;-83
2022/06/26 11:40:44;;;;;;;5.20;1.83;;;22.20;33.10;;;;;;4950044;29;20466;-85
2022/06/26 11:43:12;;;;;;;5.30;1.67;;;22.50;33.50;;;;;;4953512;29;20485;-83
2022/06/26 11:45:40;;;;;;;4.17;1.47;;;22.20;37.40;;;;;;4947939;29;20462;-84
2022/06/26 11:48:10;;;;;;;7.43;1.90;;;21.80;40.90;;;;;;4947266;29;20477;-82
2022/06/26 11:50:38;;;;;;;8.07;2.23;;;21.50;44.50;;;;;;4938404;29;20448;-83
2022/06/26 11:53:07;;;;;;;4.67;1.23;;;21.40;50.50;;;;;;4945740;29;21017;-84
2022/06/26 11:55:34;;;;;;;5.37;2.07;;;21.10;46.40;;;;;;4959673;29;20460;-85
2022/06/26 11:58:03;;;;;;;5.00;1.83;;;20.90;48.10;;;;;;4957361;28;20461;-84
2022/06/26 12:00:30;;;;;;;5.90;1.77;;;20.80;47.30;;;;;;4961664;29;20518;-85
2022/06/26 12:02:57;;;;;;;4.63;1.63;;;20.90;51.10;;;;;;4958334;29;20478;-84
2022/06/26 12:05:27;;;;;;;7.37;2.07;;;21.00;54.20;;;;;;4942339;29;20465;-84
2022/06/26 12:07:56;;;;;;;5.00;1.87;;;21.00;49.30;;;;;;4948474;29;20506;-85
2022/06/26 12:10:27;;;;;;;6.53;2.13;;;21.10;50.20;;;;;;4963646;29;20989;-84
2022/06/26 12:12:55;;;;;;;6.77;1.80;;;21.20;44.10;;;;;;4958872;29;20486;-87
2022/06/26 12:15:22;;;;;;;4.40;1.37;;;21.20;43.50;;;;;;4945402;29;20460;-85
2022/06/26 12:17:57;;;;;;;6.33;2.27;;;21.30;46.50;;;;;;4945501;29;20455;-87
2022/06/26 12:20:24;;;;;;;5.90;1.93;;;21.50;42.50;;;;;;4961208;29;20453;-84
2022/06/26 12:22:53;;;;;;;5.40;1.77;;;21.50;44.70;;;;;;4962352;29;20477;-87
2022/06/26 12:25:29;;;;;;;4.87;1.50;;;21.60;44.60;;;;;;4945005;29;20460;-85
2022/06/26 12:27:56;;;;;;;4.70;1.80;;;21.60;42.20;;;;;;4942966;29;20480;-84
2022/06/26 12:30:26;;;;;;;8.47;1.63;;;21.60;40.70;;;;;;4961207;29;20461;-84
2022/06/26 12:32:53;;;;;;;4.87;1.40;;;21.60;41.60;;;;;;4963116;29;20476;-84
2022/06/26 12:35:20;;;;;;;6.33;1.60;;;21.60;36.80;;;;;;4943101;29;20465;-86
2022/06/26 12:37:47;;;;;;;5.43;2.00;;;21.80;39.20;;;;;;4943843;29;20453;-84
2022/06/26 12:40:14;;;;;;;4.77;1.63;;;21.80;37.00;;;;;;4935633;29;20460;-84
2022/06/26 12:42:42;;;;;;;7.47;1.80;;;21.70;38.90;;;;;;4952981;29;20481;-85
2022/06/26 12:45:10;;;;;;;5.50;1.60;;;21.60;37.50;;;;;;4961702;29;20969;-84
2022/06/26 12:47:37;;;;;;;5.90;2.37;;;21.50;45.80;;;;;;4953289;29;20958;-85
2022/06/26 12:50:04;;;;;;;6.10;2.87;;;21.40;54.50;;;;;;4941527;29;20474;-85
2022/06/26 12:52:32;;;;;;;7.80;4.07;;;21.40;60.10;;;;;;4942440;29;20480;-86
2022/06/26 12:54:59;;;;;;;5.50;1.90;;;21.10;52.20;;;;;;4942363;29;20894;-84
2022/06/26 12:57:26;;;;;;;4.93;1.70;;;21.00;50.30;;;;;;4947719;29;20466;-85
2022/06/26 12:59:54;;;;;;;6.20;1.50;;;21.00;56.00;;;;;;4958152;29;20465;-87
2022/06/26 13:02:21;;;;;;;7.70;2.30;;;21.00;52.50;;;;;;4955600;29;20530;-83
2022/06/26 13:04:48;;;;;;;10.40;3.80;;;21.20;58.60;;;;;;4941396;29;20525;-83
2022/06/26 13:07:15;;;;;;;5.40;1.90;;;21.20;57.40;;;;;;4944960;29;20466;-81
2022/06/26 13:09:42;;;;;;;7.87;2.40;;;21.40;52.60;;;;;;4939629;29;20632;-81
2022/06/26 13:12:09;;;;;;;7.63;1.60;;;21.60;52.90;;;;;;4957603;29;20488;-81
2022/06/26 13:14:35;;;;;;;5.20;2.03;;;21.50;43.60;;;;;;4963572;29;20462;-81
2022/06/26 13:17:04;;;;;;;5.93;2.17;;;21.50;45.90;;;;;;4956205;29;20565;-84
2022/06/26 13:19:31;;;;;;;7.90;1.90;;;21.60;48.40;;;;;;4942462;29;20449;-82
2022/06/26 13:21:57;;;;;;;4.60;1.57;;;21.90;47.30;;;;;;4945548;29;20480;-82
2022/06/26 13:24:24;;;;;;;7.20;1.80;;;22.20;40.30;;;;;;4947320;29;20554;-83
2022/06/26 13:26:51;;;;;;;6.60;2.10;;;22.20;45.00;;;;;;4945304;29;20838;-83
2022/06/26 13:29:18;;;;;;;5.40;1.57;;;22.50;43.50;;;;;;4940406;29;20456;-83
2022/06/26 13:31:44;;;;;;;4.43;1.60;;;22.80;42.50;;;;;;4949708;29;20470;-82
2022/06/26 13:34:12;;;;;;;5.23;1.77;;;22.80;37.90;;;;;;4946544;29;20450;-83
2022/06/26 13:36:39;;;;;;;4.83;1.63;;;23.00;40.90;;;;;;4960197;29;20456;-83
2022/06/26 13:39:06;;;;;;;4.90;1.53;;;22.80;39.50;;;;;;4955595;29;20492;-82
2022/06/26 13:41:33;;;;;;;9.73;2.27;;;22.80;37.30;;;;;;4960155;29;20477;-83
2022/06/26 13:44:00;;;;;;;4.87;1.57;;;23.00;41.70;;;;;;4958704;29;20455;-84
2022/06/26 13:46:27;;;;;;;6.47;1.57;;;23.00;36.80;;;;;;4949349;29;20840;-83
2022/06/26 13:48:54;;;;;;;6.30;1.87;;;22.50;37.60;;;;;;4959810;29;20468;-82
2022/06/26 13:51:22;;;;;;;5.57;1.50;;;22.00;37.20;;;;;;4960430;29;20502;-83
2022/06/26 13:53:49;;;;;;;5.40;1.63;;;21.80;35.50;;;;;;4955836;29;20463;-82
2022/06/26 13:56:16;;;;;;;4.20;1.60;;;21.70;39.50;;;;;;4940204;29;20481;-82
2022/06/26 13:58:43;;;;;;;5.23;1.80;;;21.50;40.50;;;;;;4941738;29;20518;-82
2022/06/26 14:01:10;;;;;;;9.80;1.80;;;21.40;45.70;;;;;;4946545;29;20467;-81
2022/06/26 14:03:37;;;;;;;4.87;1.77;;;21.10;54.20;;;;;;4940119;29;20463;-83
2022/06/26 14:06:04;;;;;;;4.73;1.67;;;20.50;66.40;;;;;;4939866;29;20458;-79
2022/06/26 14:08:32;;;;;;;6.00;1.63;;;20.00;92.80;;;;;;4954497;29;20450;-79
2022/06/26 14:10:59;;;;;;;4.87;1.50;;;19.40;80.00;;;;;;4941469;29;20465;-79
2022/06/26 14:13:26;;;;;;;5.40;1.90;;;19.20;89.60;;;;;;4935506;29;20465;-79
2022/06/26 14:15:53;;;;;;;8.00;2.60;;;19.10;82.00;;;;;;4937384;29;20461;-80
2022/06/26 14:18:19;;;;;;;8.50;2.00;;;19.00;85.20;;;;;;4937175;29;20484;-80
2022/06/26 14:20:46;;;;;;;6.17;1.73;;;18.90;80.40;;;;;;4949441;29;20460;-80
2022/06/26 14:26:00;;;;;;;5.33;2.20;;;18.90;85.10;;;;;;4938410;29;20513;-79
2022/06/26 14:28:29;;;;;;;4.70;1.90;;;19.00;73.60;;;;;;4944776;29;20490;-79
2022/06/26 14:30:57;;;;;;;5.77;2.20;;;19.00;77.50;;;;;;4951605;29;20594;-79
2022/06/26 14:33:24;;;;;;;5.90;2.20;;;19.00;85.10;;;;;;4938528;29;20501;-80
2022/06/26 14:35:51;;;;;;;5.50;2.20;;;19.20;85.40;;;;;;4940209;29;21235;-79
2022/06/26 14:38:18;;;;;;;4.93;2.00;;;19.30;72.50;;;;;;4953262;29;20480;-79